Time;durP1;ratioP1;P1;durP2;ratioP2;P2;SDS_P1;SDS_P2;PMS_P1;PMS_P2;Temp;Humidity;BMP_temperature;BMP_pressure;BME280_temperature;BME280_humidity;BME280_pressure;Samples;Min_cycle;Max_cycle;Signal;HPM_P1;HPM_P2
2023/09/20 00:00:46;;;;;;;1.50;1.00;;;;;;;11.54;100.00;97860.16;6237417;28;20219;-90
2023/09/20 00:03:56;;;;;;;1.53;1.00;;;;;;;11.31;100.00;97831.78;6231167;28;20776;-91
2023/09/20 00:06:58;;;;;;;4.37;1.00;;;;;;;10.11;100.00;97652.56;6240073;28;20231;-90
2023/09/20 00:10:01;;;;;;;2.23;1.00;;;;;;;10.45;100.00;97717.38;6241923;28;20223;-90
2023/09/20 00:13:17;;;;;;;2.63;1.10;;;;;;;11.17;100.00;97830.50;6226746;28;20234;-91
2023/09/20 00:16:22;;;;;;;1.33;0.90;;;;;;;11.05;100.00;97806.56;6228689;28;20608;-91
2023/09/20 00:19:24;;;;;;;3.70;1.20;;;;;;;11.68;100.00;97906.03;6235720;28;20207;-91
2023/09/20 00:22:50;;;;;;;1.30;1.00;;;;;;;10.99;100.00;97802.22;6258691;28;20262;-90
2023/09/20 00:26:13;;;;;;;2.57;0.97;;;;;;;10.22;100.00;97688.16;6272340;28;20220;-91
2023/09/20 00:29:26;;;;;;;1.23;1.13;;;;;;;11.48;100.00;97885.97;6244457;28;20226;-90
2023/09/20 00:32:44;;;;;;;1.00;0.90;;;;;;;11.25;100.00;97854.09;6244687;28;20245;-91
2023/09/20 00:35:58;;;;;;;1.07;0.97;;;;;;;10.03;100.00;97651.09;6256277;28;20219;-91
2023/09/20 00:39:02;;;;;;;1.50;1.10;;;;;;;9.93;100.00;97639.44;6266846;28;20299;-90
2023/09/20 00:42:36;;;;;;;3.23;0.83;;;;;;;11.71;100.00;97916.19;6232428;28;20840;-90
2023/09/20 00:46:00;;;;;;;2.00;1.00;;;;;;;11.37;100.00;97863.63;6228949;28;20231;-91
2023/09/20 00:49:03;;;;;;;5.40;1.47;;;;;;;9.70;100.00;97633.16;6217484;28;20231;-90
2023/09/20 00:52:27;;;;;;;3.43;1.00;;;;;;;10.89;100.00;97789.53;6226370;28;20234;-91
2023/09/20 00:55:49;;;;;;;1.60;1.10;;;;;;;11.58;100.00;97902.13;6232087;28;20228;-91
2023/09/20 00:59:06;;;;;;;1.53;1.17;;;;;;;11.56;100.00;97909.56;6214711;28;20231;-91
2023/09/20 01:02:24;;;;;;;2.97;1.10;;;;;;;10.23;100.00;97713.72;6203671;28;20223;-91
2023/09/20 01:05:36;;;;;;;4.13;1.43;;;;;;;11.27;100.00;97868.00;6224343;28;20240;-91
2023/09/20 01:08:54;;;;;;;1.20;1.10;;;;;;;11.49;100.00;97914.25;6246332;28;20235;-90
2023/09/20 01:12:09;;;;;;;1.20;1.10;;;;;;;11.46;100.00;97901.38;6223955;28;20258;-90
2023/09/20 01:15:12;;;;;;;1.63;1.00;;;;;;;10.93;100.00;97811.16;6190964;28;20220;-91
2023/09/20 01:18:21;;;;;;;1.93;1.07;;;;;;;11.36;100.00;97877.22;6223578;28;20208;-92
2023/09/20 01:21:44;;;;;;;2.50;1.17;;;;;;;11.38;100.00;97867.13;6245422;28;20294;-91
2023/09/20 01:25:22;;;;;;;4.60;1.10;;;;;;;10.89;100.00;97818.84;6216451;28;20246;-91
2023/09/20 01:28:31;;;;;;;4.40;1.50;;;;;;;11.45;100.00;97896.31;6233367;28;20246;-91
2023/09/20 01:31:37;;;;;;;1.30;1.00;;;;;;;11.42;100.00;97902.91;6216273;28;20235;-91
2023/09/20 01:35:13;;;;;;;3.40;1.00;;;;;;;10.57;100.00;97765.25;6231640;28;20230;-91
2023/09/20 01:38:26;;;;;;;3.27;1.20;;;;;;;10.71;100.00;97797.72;6226294;28;20310;-90
2023/09/20 01:41:28;;;;;;;2.23;1.00;;;;;;;10.85;100.00;97809.72;6232145;28;20227;-92
2023/09/20 01:44:38;;;;;;;4.10;1.10;;;;;;;11.06;100.00;97851.66;6216887;28;20227;-90
2023/09/20 01:47:49;;;;;;;1.20;1.10;;;;;;;11.27;100.00;97874.13;6216114;28;20227;-91
2023/09/20 01:51:15;;;;;;;0.80;0.80;;;;;;;11.37;100.00;97902.81;6214174;28;20243;-91
2023/09/20 01:54:20;;;;;;;1.67;1.00;;;;;;;10.45;100.00;97749.31;6246294;28;20235;-91
2023/09/20 01:57:40;;;;;;;0.97;0.87;;;;;;;11.08;100.00;97843.41;6246700;28;20234;-92
2023/09/20 02:00:43;;;;;;;0.90;0.90;;;;;;;11.23;100.00;97857.00;6225911;28;20232;-91
2023/09/20 02:03:51;;;;;;;2.57;1.20;;;;;;;10.84;100.00;97800.91;6240780;28;20236;-91
2023/09/20 02:07:06;;;;;;;0.90;0.90;;;;;;;11.15;100.00;97844.06;6228963;28;20603;-91
2023/09/20 02:10:39;;;;;;;1.40;1.00;;;;;;;11.44;100.00;97886.69;6226577;28;20609;-91
2023/09/20 02:13:50;;;;;;;1.73;1.13;;;;;;;11.44;100.00;97882.16;6246340;28;20228;-91
2023/09/20 02:17:07;;;;;;;2.07;1.23;;;;;;;10.73;100.00;97777.78;6244080;28;20227;-92
2023/09/20 02:20:25;;;;;;;2.50;1.17;;;;;;;10.53;100.00;97761.44;6196611;28;20605;-90
2023/09/20 02:23:35;;;;;;;3.53;1.17;;;;;;;11.27;100.00;97879.47;6230917;28;20258;-91
2023/09/20 02:26:48;;;;;;;2.90;1.23;;;;;;;10.95;100.00;97841.88;6210146;28;20239;-91
2023/09/20 02:34:23;;;;;;;2.30;1.33;;;;;;;10.78;100.00;97825.81;6223731;28;20462;-91
2023/09/20 02:38:05;;;;;;;1.67;1.10;;;;;;;10.45;100.00;97797.28;6239141;28;20249;-91
2023/09/20 02:41:33;;;;;;;3.60;1.43;;;;;;;10.78;100.00;97847.16;6233924;28;20232;-89
2023/09/20 02:45:49;;;;;;;2.77;1.50;;;;;;;9.53;100.00;97646.41;6204660;28;20611;-88
2023/09/20 02:49:49;;;;;;;2.63;1.17;;;;;;;9.70;100.00;97665.09;6170715;28;20231;-88
2023/09/20 02:53:07;;;;;;;2.17;1.27;;;;;;;10.48;100.00;97798.63;6209588;28;20312;-88
2023/09/20 02:56:14;;;;;;;3.23;1.60;;;;;;;10.56;100.00;97798.25;6228376;28;20369;-87
2023/09/20 03:00:46;;;;;;;1.37;1.17;;;;;;;10.79;100.00;97838.13;6237066;28;20597;-87
2023/09/20 03:04:05;;;;;;;3.20;1.20;;;;;;;10.22;100.00;97773.34;6190497;28;20320;-88
2023/09/20 03:07:32;;;;;;;1.97;1.40;;;;;;;10.96;100.00;97887.97;6213785;28;20668;-88
2023/09/20 03:12:01;;;;;;;1.13;1.03;;;;;;;8.97;100.00;97580.69;6224450;28;20228;-89
2023/09/20 03:15:39;;;;;;;;;;;;;;;;;;;;;
2023/09/20 03:19:11;;;;;;;;;;;;;;;;;;;;;
2023/09/20 03:22:47;;;;;;;2.47;1.10;;;;;;;10.42;100.00;97819.03;6228813;28;20372;-88
2023/09/20 03:26:09;;;;;;;1.97;1.33;;;;;;;10.16;100.00;97791.09;6210748;28;20234;-88
2023/09/20 03:29:23;;;;;;;3.80;1.40;;;;;;;10.62;100.00;97842.59;6215940;28;20220;-89
2023/09/20 03:32:46;;;;;;;1.40;1.30;;;;;;;10.85;100.00;97893.13;6222243;28;20224;-89
2023/09/20 03:36:09;;;;;;;1.10;1.00;;;;;;;10.72;100.00;97866.75;6223127;28;20227;-88
2023/09/20 03:39:35;;;;;;;1.40;1.10;;;;;;;9.14;100.00;97600.16;6224133;28;20364;-88
2023/09/20 03:43:11;;;;;;;1.03;0.97;;;;;;;10.65;100.00;97855.44;6213776;28;20629;-89
2023/09/20 03:46:42;;;;;;;1.53;1.20;;;;;;;9.80;100.00;97720.34;6220274;28;20233;-88
2023/09/20 03:50:34;;;;;;;1.13;1.03;;;;;;;10.32;100.00;97803.66;6230440;28;20705;-91
2023/09/20 03:54:18;;;;;;;2.30;1.10;;;;;;;10.94;100.00;97879.44;6204374;28;20248;-91
2023/09/20 03:58:11;;;;;;;1.17;1.07;;;;;;;10.42;100.00;97819.03;6223760;28;20255;-90
2023/09/20 04:01:20;;;;;;;1.53;1.30;;;;;;;10.90;100.00;97886.28;6240458;28;20237;-92
2023/09/20 04:04:34;;;;;;;1.43;1.17;;;;;;;10.72;100.00;97850.78;6222837;28;20366;-91
2023/09/20 04:07:51;;;;;;;1.07;1.00;;;;;;;10.95;100.00;97889.03;6226926;28;20798;-92
2023/09/20 04:11:26;;;;;;;0.90;0.90;;;;;;;9.60;100.00;97677.38;6230197;28;20227;-91
2023/09/20 04:15:08;;;;;;;2.80;1.13;;;;;;;10.69;100.00;97855.75;6232127;28;20766;-91
2023/09/20 04:18:11;;;;;;;1.93;1.20;;;;;;;10.40;100.00;97820.34;6213140;28;20229;-91
2023/09/20 04:21:20;;;;;;;0.90;0.90;;;;;;;10.62;100.00;97861.25;6200927;28;20577;-93
2023/09/20 04:24:35;;;;;;;1.67;1.00;;;;;;;9.52;100.00;97687.34;6224116;28;20845;-91
2023/09/20 04:28:11;;;;;;;2.87;1.30;;;;;;;10.84;100.00;97912.03;6263577;28;20243;-90
2023/09/20 04:31:55;;;;;;;1.80;1.20;;;;;;;10.79;100.00;97914.59;6235935;28;20234;-91
2023/09/20 04:35:07;;;;;;;2.20;1.10;;;;;;;10.32;100.00;97843.63;6246502;28;20232;-91
2023/09/20 04:38:33;;;;;;;4.87;1.50;;;;;;;10.44;100.00;97867.56;6250049;28;20235;-91
2023/09/20 04:42:17;;;;;;;1.70;1.50;;;;;;;10.63;100.00;97900.16;6215568;28;20226;-91
2023/09/20 04:45:23;;;;;;;1.73;1.27;;;;;;;9.78;100.00;97775.66;6238410;28;20696;-91
2023/09/20 04:56:31;;;;;;;3.30;1.30;;;;;;;9.65;100.00;97766.06;6274143;28;20215;-92
2023/09/20 04:59:39;;;;;;;1.50;1.40;;;;;;;9.17;100.00;97691.91;6262910;28;20250;-93
2023/09/20 05:04:06;;;;;;;2.10;1.40;;;;;;;10.73;100.00;97908.34;6258371;28;20215;-91
2023/09/20 05:07:44;;;;;;;2.03;1.53;;;;;;;9.79;100.00;97767.44;6247598;28;20258;-91
2023/09/20 05:16:01;;;;;;;5.03;1.73;;;;;;;10.03;100.00;97801.97;6245801;28;20309;-91
2023/09/20 05:20:00;;;;;;;1.77;1.53;;;;;;;10.79;100.00;97902.09;6218047;28;20228;-91
2023/09/20 05:24:08;;;;;;;3.97;2.00;;;;;;;10.88;100.00;97904.34;6209805;28;20239;-92
2023/09/20 05:28:00;;;;;;;1.90;1.30;;;;;;;10.90;100.00;97897.75;6234191;28;20228;-92
2023/09/20 05:48:33;;;;;;;3.10;1.53;;;;;;;11.15;100.00;97909.94;6156408;28;20256;-92
2023/09/20 05:53:06;;;;;;;3.33;2.50;;;;;;;11.27;100.00;97908.78;6158875;28;20360;-92
2023/09/20 06:00:22;;;;;;;1.70;1.60;;;;;;;11.39;100.00;97922.09;2908302;22;20302;-55
2023/09/20 06:03:26;;;;;;;2.53;1.73;;;;;;;11.27;100.00;97898.13;6291965;22;20223;-56
2023/09/20 06:06:30;;;;;;;3.57;1.70;;;;;;;11.48;100.00;97917.97;6280021;28;20226;-54
2023/09/20 06:09:32;;;;;;;1.97;1.37;;;;;;;11.54;100.00;97917.00;6286634;28;20226;-57
2023/09/20 06:12:34;;;;;;;2.60;1.87;;;;;;;11.63;100.00;97902.22;6280130;28;20230;-56
2023/09/20 06:15:37;;;;;;;2.97;1.83;;;;;;;11.69;100.00;97908.44;6279977;28;20222;-57
2023/09/20 06:18:40;;;;;;;1.93;1.63;;;;;;;11.76;100.00;97905.59;6280745;28;20364;-57
2023/09/20 06:21:55;;;;;;;1.60;1.50;;;;;;;11.84;100.00;97908.69;6278253;28;20231;-57
2023/09/20 06:24:58;;;;;;;1.60;1.50;;;;;;;11.87;100.00;97900.22;6295861;28;20729;-58
2023/09/20 06:28:04;;;;;;;3.00;1.90;;;;;;;11.99;100.00;97909.97;6277838;28;20238;-57
2023/09/20 06:31:14;;;;;;;4.40;1.90;;;;;;;12.06;100.00;97903.41;6278316;28;20296;-58
2023/09/20 06:34:24;;;;;;;1.70;1.60;;;;;;;12.17;100.00;97915.06;6295076;28;20651;-58
2023/09/20 06:37:26;;;;;;;2.37;1.87;;;;;;;12.21;100.00;97907.34;6274943;28;20230;-55
2023/09/20 06:40:38;;;;;;;2.53;1.50;;;;;;;12.25;100.00;97890.56;6279694;28;20262;-55
2023/09/20 06:43:42;;;;;;;3.60;1.70;;;;;;;12.38;100.00;97894.75;6279431;28;20238;-56
2023/09/20 06:46:45;;;;;;;2.00;1.90;;;;;;;12.49;100.00;97895.69;6275925;28;20234;-57
2023/09/20 06:49:49;;;;;;;1.60;1.40;;;;;;;12.58;100.00;97904.88;6278522;28;20339;-57
2023/09/20 06:52:54;;;;;;;1.80;1.40;;;;;;;12.69;100.00;97898.59;6278324;28;20514;-58
2023/09/20 06:55:59;;;;;;;1.60;1.50;;;;;;;12.77;100.00;97900.03;6279360;28;20231;-56
2023/09/20 06:59:54;;;;;;;3.43;1.97;;;;;;;12.87;100.00;97898.28;6276262;28;20238;-57
2023/09/20 07:03:26;;;;;;;2.17;1.87;;;;;;;13.02;100.00;97900.31;6276839;28;20225;-55
2023/09/20 07:06:31;;;;;;;2.33;1.53;;;;;;;13.11;100.00;97900.66;6278772;28;20226;-56
2023/09/20 07:09:34;;;;;;;1.47;1.37;;;;;;;13.19;100.00;97905.53;6279531;28;20219;-58
2023/09/20 07:12:38;;;;;;;2.00;1.67;;;;;;;13.30;100.00;97898.44;6278630;28;20731;-54
2023/09/20 07:15:42;;;;;;;2.10;1.70;;;;;;;13.36;100.00;97884.06;6260541;28;20699;-57
2023/09/20 07:18:44;;;;;;;2.07;1.70;;;;;;;13.56;100.00;97905.66;6261272;28;20760;-56
2023/09/20 07:21:47;;;;;;;1.73;1.60;;;;;;;13.68;100.00;97898.25;6279969;28;20825;-57
2023/09/20 07:24:54;;;;;;;2.93;1.70;;;;;;;13.80;100.00;97900.75;6278973;28;20625;-56
2023/09/20 07:27:58;;;;;;;1.70;1.60;;;;;;;13.97;100.00;97899.78;6274515;28;20314;-57
2023/09/20 07:31:03;;;;;;;1.70;1.60;;;;;;;14.16;100.00;97901.78;6278162;28;20299;-58
2023/09/20 07:34:06;;;;;;;2.43;1.70;;;;;;;14.37;100.00;97901.88;6294347;28;20303;-56
2023/09/20 07:37:12;;;;;;;2.87;1.70;;;;;;;14.58;100.00;97894.78;6264966;28;20375;-58
2023/09/20 07:40:14;;;;;;;1.93;1.73;;;;;;;14.84;100.00;97888.44;6261475;28;20246;-57
2023/09/20 07:43:18;;;;;;;1.67;1.57;;;;;;;15.11;100.00;97882.84;6278582;28;20762;-57
2023/09/20 07:46:33;;;;;;;2.67;1.60;;;;;;;15.35;100.00;97883.16;6276344;28;20230;-59
2023/09/20 07:49:35;;;;;;;2.30;1.50;;;;;;;15.53;100.00;97887.22;6260495;28;20230;-57
2023/09/20 07:52:40;;;;;;;2.40;1.63;;;;;;;15.65;100.00;97882.38;6276332;28;20234;-57
2023/09/20 07:55:44;;;;;;;1.73;1.60;;;;;;;15.86;100.00;97893.09;6279614;28;20232;-53
2023/09/20 07:58:48;;;;;;;1.60;1.00;;;;;;;15.93;100.00;97880.22;6277918;28;20360;-59
2023/09/20 08:01:52;;;;;;;3.30;1.43;;;;;;;16.16;100.00;97887.72;6277258;28;20230;-58
2023/09/20 08:04:54;;;;;;;3.47;1.00;;;;;;;16.41;100.00;97878.75;6277553;28;20372;-58
2023/09/20 08:07:56;;;;;;;1.57;1.40;;;;;;;16.62;100.00;97879.47;6260682;28;20230;-59
2023/09/20 08:10:58;;;;;;;1.10;1.00;;;;;;;16.79;100.00;97889.09;6275080;28;20236;-58
2023/09/20 08:14:15;;;;;;;2.53;1.20;;;;;;;16.97;100.00;97883.09;6279875;28;20738;-58
2023/09/20 08:20:38;;;;;;;1.93;1.20;;;;;;;17.44;93.43;97890.59;6278089;28;20738;-57
2023/09/20 09:01:12;;;;;;;1.57;0.90;;;;;;;19.47;68.72;97861.56;6257913;28;20231;-52
2023/09/20 09:04:18;;;;;;;1.23;0.97;;;;;;;19.69;67.02;97861.75;6264296;28;20358;-52
2023/09/20 09:07:24;;;;;;;1.80;1.40;;;;;;;19.93;65.60;97850.81;6259844;28;20241;-52
2023/09/20 09:10:27;;;;;;;1.70;1.20;;;;;;;20.07;67.73;97857.03;6262304;28;20254;-53
2023/09/20 09:13:30;;;;;;;3.77;0.90;;;;;;;19.98;70.93;97849.91;6281353;28;20277;-53
2023/09/20 09:16:33;;;;;;;2.97;1.27;;;;;;;20.09;65.77;97854.03;6273989;28;20242;-51
2023/09/20 09:19:37;;;;;;;2.00;1.37;;;;;;;20.09;65.59;97852.13;6268763;28;20632;-46
2023/09/20 09:22:42;;;;;;;2.80;1.30;;;;;;;20.06;66.42;97838.41;6268387;28;20231;-48
2023/09/20 09:25:46;;;;;;;0.83;0.80;;;;;;;20.09;69.91;97838.59;6269517;28;20222;-47
2023/09/20 09:28:48;;;;;;;1.73;1.00;;;;;;;20.07;72.59;97835.41;6266540;28;20241;-51
2023/09/20 09:31:51;;;;;;;1.73;1.40;;;;;;;20.25;68.34;97836.41;6269532;28;20230;-50
2023/09/20 09:34:57;;;;;;;1.97;1.20;;;;;;;20.46;62.61;97836.00;6262332;28;20728;-49
2023/09/20 09:38:01;;;;;;;4.00;1.30;;;;;;;20.57;61.36;97824.69;6268732;28;20237;-49
2023/09/20 09:41:18;;;;;;;3.67;1.37;;;;;;;20.56;68.02;97827.69;6269701;28;20234;-52
2023/09/20 09:44:52;;;;;;;2.20;1.40;;;;;;;20.57;62.76;97824.69;6267604;28;20696;-49
2023/09/20 09:47:55;;;;;;;3.90;1.17;;;;;;;20.68;62.68;97814.44;6261321;28;20711;-52
2023/09/20 09:51:01;;;;;;;3.37;1.27;;;;;;;20.75;62.87;97816.75;6265966;28;20328;-51
2023/09/20 09:54:05;;;;;;;1.60;1.30;;;;;;;20.95;62.67;97816.28;6267504;28;20241;-50
2023/09/20 09:57:08;;;;;;;2.40;1.10;;;;;;;20.96;60.43;97812.47;6267597;28;20246;-52
2023/09/20 10:00:10;;;;;;;1.63;1.17;;;;;;;21.08;62.15;97812.75;6247497;28;20212;-51
2023/09/20 10:03:34;;;;;;;1.83;1.30;;;;;;;21.16;65.71;97813.09;6261237;28;20208;-48
2023/09/20 10:07:00;;;;;;;4.87;1.53;;;;;;;21.24;64.53;97796.91;6265140;28;20244;-49
2023/09/20 10:10:12;;;;;;;4.50;1.50;;;;;;;21.22;62.38;97793.69;6261880;28;20696;-52
2023/09/20 10:13:28;;;;;;;2.10;1.17;;;;;;;21.39;62.46;97795.75;6264659;28;20304;-50
2023/09/20 10:16:32;;;;;;;2.20;1.00;;;;;;;21.40;59.91;97796.56;6272532;28;20235;-50
2023/09/20 10:19:36;;;;;;;1.67;1.17;;;;;;;21.40;58.50;97783.00;6266898;28;20252;-53
2023/09/20 10:22:41;;;;;;;1.83;1.10;;;;;;;21.55;58.74;97778.00;6266677;28;20226;-49
2023/09/20 10:25:48;;;;;;;4.40;1.00;;;;;;;21.63;60.70;97773.75;6247462;28;20235;-51
2023/09/20 10:29:12;;;;;;;2.33;1.03;;;;;;;21.67;61.31;97763.06;6267860;28;20301;-52
2023/09/20 10:32:14;;;;;;;1.33;1.03;;;;;;;21.74;61.40;97766.13;6258689;28;20445;-51
2023/09/20 10:35:19;;;;;;;1.90;1.10;;;;;;;21.84;59.30;97763.16;6267483;28;20317;-48
2023/09/20 10:38:23;;;;;;;1.37;1.13;;;;;;;21.90;59.89;97751.03;6266356;28;20234;-51
2023/09/20 10:41:39;;;;;;;4.93;1.20;;;;;;;21.95;58.02;97750.09;6266721;28;20305;-55
2023/09/20 10:44:43;;;;;;;1.10;1.00;;;;;;;22.16;57.74;97748.44;6266216;28;20234;-53
2023/09/20 10:47:49;;;;;;;1.80;1.07;;;;;;;22.18;59.04;97740.00;6276893;28;20237;-53
2023/09/20 10:50:54;;;;;;;2.00;1.00;;;;;;;22.55;55.88;97741.31;6264743;28;20230;-54
2023/09/20 10:53:56;;;;;;;3.40;1.43;;;;;;;22.34;57.43;97739.22;6266260;28;20314;-54
2023/09/20 10:57:07;;;;;;;2.70;1.27;;;;;;;22.33;57.11;97732.19;6267448;28;20231;-52
2023/09/20 11:00:09;;;;;;;1.20;1.10;;;;;;;22.57;57.68;97725.53;6259603;28;20578;-52
2023/09/20 11:03:22;;;;;;;3.00;1.47;;;;;;;22.56;58.37;97737.47;6275305;28;20570;-51
2023/09/20 11:06:32;;;;;;;2.20;1.23;;;;;;;22.61;58.53;97730.00;6278001;28;20730;-52
2023/09/20 11:10:34;;;;;;;1.20;1.03;;;;;;;22.50;58.87;97723.25;6270515;28;20222;-52
2023/09/20 11:14:01;;;;;;;2.60;1.33;;;;;;;22.50;58.99;97714.31;6255486;28;20230;-55
2023/09/20 11:21:29;;;;;;;3.23;1.30;;;;;;;22.47;63.14;97701.41;6259604;28;20684;-52
2023/09/20 11:24:32;;;;;;;3.37;1.30;;;;;;;22.60;62.32;97708.56;6265528;28;20331;-51
2023/09/20 11:27:36;;;;;;;3.45;1.40;;;;;;;22.61;61.78;97697.41;6265373;28;20235;-52
2023/09/20 11:30:40;;;;;;;2.50;1.20;;;;;;;22.95;60.63;97695.00;6265073;28;20643;-56
2023/09/20 11:33:42;;;;;;;2.35;1.27;;;;;;;23.04;60.88;97695.78;6266139;28;20348;-53
2023/09/20 11:36:46;;;;;;;2.78;1.40;;;;;;;22.95;61.95;97682.22;6264910;28;20241;-54
2023/09/20 11:39:50;;;;;;;2.28;1.50;;;;;;;23.03;62.61;97683.31;6265389;28;20242;-53
2023/09/20 11:42:53;;;;;;;3.50;1.50;;;;;;;23.44;60.09;97680.00;6264498;28;20231;-51
2023/09/20 11:45:56;;;;;;;4.63;1.33;;;;;;;23.14;62.55;97671.78;6265080;28;20234;-48
2023/09/20 11:49:08;;;;;;;3.40;1.75;;;;;;;23.47;60.74;97664.97;6245710;28;20664;-51
2023/09/20 11:52:10;;;;;;;2.25;1.67;;;;;;;23.30;61.93;97665.81;6245988;28;20231;-54
2023/09/20 11:55:15;;;;;;;1.90;1.45;;;;;;;23.27;61.80;97661.03;6264838;28;20899;-53
2023/09/20 11:58:22;;;;;;;1.75;1.50;;;;;;;23.39;62.86;97647.56;6263614;28;20770;-53
2023/09/20 12:05:43;;;;;;;2.30;1.58;;;;;;;23.42;61.89;97653.16;6269244;28;20642;-53
2023/09/20 12:09:00;;;;;;;2.13;1.70;;;;;;;23.52;61.26;97640.31;6266903;28;20222;-52
2023/09/20 12:12:06;;;;;;;3.45;1.40;;;;;;;23.62;60.81;97643.47;6266164;28;20265;-53
2023/09/20 12:15:10;;;;;;;2.78;1.83;;;;;;;23.71;62.47;97639.94;6271091;28;20225;-54
2023/09/20 12:18:14;;;;;;;2.75;1.50;;;;;;;23.64;61.90;97615.94;6264561;28;20551;-52
2023/09/20 12:26:11;;;;;;;3.85;1.50;;;;;;;23.62;63.29;97607.31;6265234;28;20222;-54
2023/09/20 12:29:15;;;;;;;3.25;1.70;;;;;;;23.70;62.00;97603.78;6264779;28;20233;-53
2023/09/20 12:32:18;;;;;;;4.20;1.73;;;;;;;23.66;62.39;97603.63;6263537;28;20771;-54
2023/09/20 12:35:20;;;;;;;2.13;1.80;;;;;;;23.58;62.86;97595.47;6263976;28;20368;-54
2023/09/20 12:38:23;;;;;;;5.50;1.52;;;;;;;23.57;61.54;97583.03;6256279;28;20227;-53
2023/09/20 12:41:25;;;;;;;3.33;1.90;;;;;;;23.63;62.31;97587.13;6247011;28;20743;-53
2023/09/20 12:44:27;;;;;;;2.60;1.63;;;;;;;23.65;62.56;97565.91;6247302;28;20230;-55
2023/09/20 12:47:29;;;;;;;2.03;1.42;;;;;;;23.70;61.23;97567.63;6266395;28;20234;-52
2023/09/20 12:50:36;;;;;;;5.32;1.70;;;;;;;23.75;60.97;97570.16;6257053;28;20231;-55
2023/09/20 12:53:39;;;;;;;2.92;1.45;;;;;;;24.08;57.41;97557.41;6264285;28;20311;-54
2023/09/20 12:56:41;;;;;;;4.30;1.67;;;;;;;24.04;57.19;97553.78;6265255;28;20829;-54
2023/09/20 12:59:46;;;;;;;3.90;1.45;;;;;;;23.83;56.61;97523.81;6268203;28;20730;-52
2023/09/20 13:02:49;;;;;;;1.73;1.60;;;;;;;24.26;55.26;97535.47;6270412;28;20312;-54
2023/09/20 13:05:51;;;;;;;3.92;1.40;;;;;;;24.17;53.64;97527.38;6256724;28;20738;-54
2023/09/20 13:08:53;;;;;;;3.90;1.70;;;;;;;24.23;53.50;97530.69;6269166;28;20238;-54
2023/09/20 13:12:04;;;;;;;2.13;1.23;;;;;;;24.08;56.01;97530.19;6262423;28;20566;-54
2023/09/20 13:15:12;;;;;;;3.17;1.38;;;;;;;23.94;57.55;97521.53;6245502;28;20234;-55
2023/09/20 13:18:16;;;;;;;3.50;1.30;;;;;;;24.06;54.31;97515.31;6251838;28;20246;-51
2023/09/20 13:21:19;;;;;;;2.70;1.50;;;;;;;24.01;56.22;97523.69;6257097;28;20327;-55
2023/09/20 13:24:21;;;;;;;4.65;1.50;;;;;;;24.12;54.33;97517.50;6267138;28;20231;-53
2023/09/20 13:27:23;;;;;;;4.13;1.27;;;;;;;24.05;55.09;97508.28;6268335;28;20231;-54
2023/09/20 13:30:26;;;;;;;3.28;1.75;;;;;;;24.28;52.68;97497.81;6262567;28;20241;-54
2023/09/20 13:33:30;;;;;;;3.67;1.60;;;;;;;24.16;53.81;97487.69;6281425;28;20219;-51
2023/09/20 13:36:33;;;;;;;2.40;1.63;;;;;;;24.02;56.17;97487.97;6268346;28;20222;-53
2023/09/20 13:39:42;;;;;;;5.20;1.67;;;;;;;23.87;55.83;97481.22;6263372;28;20218;-54
2023/09/20 13:42:45;;;;;;;3.10;1.67;;;;;;;23.80;57.13;97489.13;6267516;28;20230;-53
2023/09/20 13:45:48;;;;;;;3.55;1.75;;;;;;;23.76;57.17;97482.75;6266935;28;20238;-55
2023/09/20 13:48:51;;;;;;;3.72;1.50;;;;;;;23.73;57.93;97491.56;6266979;28;20241;-52
2023/09/20 13:51:53;;;;;;;3.50;1.45;;;;;;;23.68;57.87;97476.25;6262482;28;20245;-55
2023/09/20 13:54:55;;;;;;;3.03;1.75;;;;;;;23.70;54.90;97465.06;6265787;28;20283;-55
2023/09/20 13:57:59;;;;;;;2.47;1.60;;;;;;;23.75;56.36;97469.50;6266427;28;20259;-56
2023/09/20 14:01:03;;;;;;;3.40;1.60;;;;;;;23.67;56.35;97460.28;6254372;28;20319;-55
2023/09/20 14:04:06;;;;;;;6.45;1.63;;;;;;;23.63;57.47;97459.31;6228694;28;20238;-55
2023/09/20 14:07:12;;;;;;;4.63;1.80;;;;;;;23.66;56.67;97464.91;6249603;28;20226;-51
2023/09/20 14:10:19;;;;;;;7.85;1.90;;;;;;;23.77;55.50;97454.44;6265384;28;20251;-53
2023/09/20 14:13:24;;;;;;;4.03;1.50;;;;;;;23.73;56.85;97469.81;6272855;28;20325;-55
2023/09/20 14:16:27;;;;;;;4.32;2.00;;;;;;;23.85;54.77;97456.28;6250091;28;20602;-55
2023/09/20 14:19:57;;;;;;;3.13;1.73;;;;;;;23.74;56.64;97455.09;6263477;28;20232;-53
2023/09/20 14:23:37;;;;;;;5.10;2.40;;;;;;;23.71;56.78;97452.25;6256387;28;20734;-56
2023/09/20 14:26:40;;;;;;;3.78;1.70;;;;;;;23.58;56.43;97444.00;6251615;28;20750;-54
2023/09/20 14:29:41;;;;;;;7.38;2.03;;;;;;;23.53;59.02;97448.84;6266890;28;20230;-55
2023/09/20 14:32:51;;;;;;;4.65;1.90;;;;;;;23.41;60.02;97450.38;6266689;28;20237;-55
2023/09/20 14:35:57;;;;;;;5.93;2.08;;;;;;;23.29;60.73;97450.28;6266636;28;20610;-52
2023/09/20 14:39:00;;;;;;;5.18;1.67;;;;;;;23.26;59.57;97461.03;6265569;28;20614;-54
2023/09/20 14:42:02;;;;;;;3.90;1.80;;;;;;;23.24;60.20;97452.41;6265941;28;20231;-55
2023/09/20 14:45:06;;;;;;;6.50;1.90;;;;;;;23.07;60.95;97447.88;6266424;28;20589;-52
2023/09/20 14:48:10;;;;;;;4.15;2.00;;;;;;;23.15;57.71;97441.56;6261550;28;20227;-55
2023/09/20 14:51:17;;;;;;;4.47;2.05;;;;;;;23.10;58.54;97433.63;6264643;28;20598;-53
2023/09/20 14:54:20;;;;;;;5.90;1.90;;;;;;;23.05;59.02;97431.88;6248117;28;20223;-55
2023/09/20 14:57:23;;;;;;;5.25;2.15;;;;;;;23.03;61.26;97433.34;6265827;28;20230;-53
2023/09/20 15:00:29;;;;;;;8.38;2.08;;;;;;;22.89;61.52;97431.66;6264405;28;20271;-55
2023/09/20 15:03:32;;;;;;;5.32;2.00;;;;;;;22.83;61.68;97438.38;6283109;28;20238;-54
2023/09/20 15:06:34;;;;;;;4.15;2.05;;;;;;;22.73;61.81;97425.16;6265859;28;20211;-55
2023/09/20 15:09:38;;;;;;;5.95;2.00;;;;;;;22.70;61.18;97431.25;6265138;28;20241;-54
2023/09/20 15:12:57;;;;;;;5.43;1.77;;;;;;;22.61;62.30;97420.44;6261981;28;20248;-55
2023/09/20 15:16:01;;;;;;;6.07;2.28;;;;;;;22.45;64.37;97416.66;6264552;28;20238;-55
2023/09/20 15:19:03;;;;;;;5.13;1.83;;;;;;;22.37;64.97;97414.78;6240359;28;20301;-54
2023/09/20 15:22:06;;;;;;;2.70;2.00;;;;;;;22.28;65.22;97416.75;6249158;28;20657;-53
2023/09/20 15:25:10;;;;;;;5.25;2.35;;;;;;;22.25;64.90;97420.09;6265435;28;20372;-54
2023/09/20 15:28:12;;;;;;;6.03;1.90;;;;;;;22.19;66.25;97413.25;6266785;28;20247;-52
2023/09/20 15:31:20;;;;;;;7.32;2.28;;;;;;;22.09;66.43;97411.66;6248484;28;20250;-54
2023/09/20 15:34:22;;;;;;;5.97;2.40;;;;;;;22.13;64.61;97405.28;6265660;28;20239;-56
2023/09/20 15:37:27;;;;;;;4.10;2.03;;;;;;;22.15;64.93;97419.31;6264326;28;20244;-52
2023/09/20 15:40:29;;;;;;;9.20;2.67;;;;;;;22.06;66.53;97409.56;6259280;28;20329;-54
2023/09/20 15:43:37;;;;;;;5.30;2.03;;;;;;;22.01;65.68;97407.81;6259129;28;20572;-53
2023/09/20 15:46:42;;;;;;;4.78;1.92;;;;;;;22.01;66.94;97415.16;6281313;28;20234;-55
2023/09/20 15:49:44;;;;;;;4.28;1.92;;;;;;;21.94;66.86;97401.31;6266836;28;20836;-54
2023/09/20 15:52:48;;;;;;;3.97;1.67;;;;;;;21.92;67.27;97411.66;6264258;28;20227;-55
2023/09/20 15:55:51;;;;;;;5.35;2.00;;;;;;;21.84;67.75;97411.38;6267637;28;20570;-55
2023/09/20 15:58:53;;;;;;;7.65;2.10;;;;;;;21.72;68.01;97400.38;6263923;28;20781;-53
2023/09/20 16:01:55;;;;;;;5.73;2.10;;;;;;;21.69;68.22;97402.94;6264827;28;20297;-55
2023/09/20 16:04:57;;;;;;;7.83;2.40;;;;;;;21.61;68.19;97409.97;6263473;28;20258;-55
2023/09/20 16:08:00;;;;;;;3.47;2.20;;;;;;;21.64;67.32;97398.50;6260425;28;20230;-53
2023/09/20 16:11:05;;;;;;;7.90;2.13;;;;;;;21.66;68.38;97407.09;6264633;28;20237;-55
2023/09/20 16:18:28;;;;;;;4.23;2.27;;;;;;;21.52;70.41;97387.47;6259687;28;20226;-54
2023/09/20 16:21:32;;;;;;;9.00;2.30;;;;;;;21.43;71.49;97395.63;6288510;28;20698;-52
2023/09/20 16:24:42;;;;;;;5.83;2.40;;;;;;;21.31;71.95;97390.84;6266915;28;20227;-55
2023/09/20 16:27:46;;;;;;;7.23;2.30;;;;;;;21.18;73.12;97394.47;6280897;28;20235;-55
2023/09/20 16:31:31;;;;;;;2.93;2.37;;;;;;;21.12;73.97;97390.31;6228865;28;20223;-55
2023/09/20 16:35:26;;;;;;;5.63;2.20;;;;;;;21.04;76.18;97393.81;6244689;28;20236;-53
2023/09/20 16:39:07;;;;;;;4.33;1.90;;;;;;;20.84;77.57;97382.47;6242543;28;20581;-55
2023/09/20 16:42:51;;;;;;;4.87;1.97;;;;;;;20.79;77.44;97385.34;6112875;29;20305;-55